createdAt,value
2018-08-25T00:00:40.984Z,2.00
2018-08-25T00:03:09.441Z,2.00
2018-08-25T00:05:37.895Z,2.23
2018-08-25T00:08:06.383Z,2.57
2018-08-25T00:10:34.868Z,2.77
2018-08-25T00:13:03.293Z,2.17
2018-08-25T00:15:31.725Z,2.10
2018-08-25T00:18:00.238Z,2.80
2018-08-25T00:20:28.787Z,2.80
2018-08-25T00:22:57.250Z,2.30
2018-08-25T00:25:25.688Z,2.03
2018-08-25T00:27:54.134Z,1.90
2018-08-25T00:30:27.904Z,1.80
2018-08-25T00:32:56.524Z,1.83
2018-08-25T00:35:24.954Z,1.83
2018-08-25T00:37:53.487Z,1.70
2018-08-25T00:40:21.912Z,1.93
2018-08-25T00:42:50.447Z,1.70
2018-08-25T00:45:19.050Z,1.83
2018-08-25T00:47:47.507Z,1.80
2018-08-25T00:50:16.020Z,1.57
2018-08-25T00:52:44.458Z,1.80
2018-08-25T00:55:13.155Z,1.83
2018-08-25T00:57:41.586Z,1.70
2018-08-25T01:00:10.044Z,1.70
2018-08-25T01:02:38.547Z,1.67
2018-08-25T01:05:07.152Z,1.60
2018-08-25T01:07:35.602Z,1.50
2018-08-25T01:10:04.196Z,1.90
2018-08-25T01:12:32.648Z,1.67
2018-08-25T01:15:01.185Z,1.67
2018-08-25T01:17:29.670Z,1.80
2018-08-25T01:19:58.080Z,1.50
2018-08-25T01:22:26.541Z,1.47
2018-08-25T01:24:54.967Z,1.67
2018-08-25T01:27:23.426Z,1.77
2018-08-25T01:29:52.014Z,1.60
2018-08-25T01:32:20.531Z,1.47
2018-08-25T01:34:49.086Z,1.63
2018-08-25T01:37:17.537Z,1.50
2018-08-25T01:39:46.011Z,1.40
2018-08-25T01:42:14.546Z,1.23
2018-08-25T01:44:43.009Z,1.33
2018-08-25T01:47:11.609Z,1.53
2018-08-25T01:49:40.025Z,1.40
2018-08-25T01:52:08.516Z,1.40
2018-08-25T01:54:37.056Z,1.30
2018-08-25T01:57:05.487Z,1.60
2018-08-25T01:59:33.970Z,1.60
2018-08-25T02:02:02.717Z,1.50
2018-08-25T02:04:31.149Z,1.40
2018-08-25T02:06:59.602Z,1.70
2018-08-25T02:09:28.094Z,1.50
2018-08-25T02:11:56.526Z,1.63
2018-08-25T02:14:24.986Z,1.53
2018-08-25T02:16:53.437Z,1.80
2018-08-25T02:19:21.976Z,1.77
2018-08-25T02:21:50.438Z,1.60
2018-08-25T02:24:18.961Z,1.57
2018-08-25T02:26:47.405Z,1.60
2018-08-25T02:29:15.848Z,1.53
2018-08-25T02:31:44.398Z,1.47
2018-08-25T02:34:12.850Z,1.30
2018-08-25T02:36:41.369Z,1.47
2018-08-25T02:39:12.026Z,1.43
2018-08-25T02:41:40.670Z,1.20
2018-08-25T02:44:09.111Z,1.30
2018-08-25T02:46:37.662Z,1.30
2018-08-25T02:49:06.354Z,1.47
2018-08-25T02:51:34.805Z,1.37
2018-08-25T02:54:03.242Z,1.50
2018-08-25T02:56:31.713Z,1.33
2018-08-25T02:59:00.148Z,1.60
2018-08-25T03:01:28.577Z,1.63
2018-08-25T03:03:57.093Z,1.80
2018-08-25T03:06:25.631Z,1.80
2018-08-25T03:08:54.172Z,1.90
2018-08-25T03:11:22.610Z,1.83
2018-08-25T03:13:51.154Z,2.13
2018-08-25T03:16:19.634Z,2.27
2018-08-25T03:18:48.070Z,2.00
2018-08-25T03:21:16.512Z,2.40
2018-08-25T03:23:44.972Z,2.47
2018-08-25T03:26:13.402Z,2.20
2018-08-25T03:28:41.984Z,2.27
2018-08-25T03:31:10.523Z,2.50
2018-08-25T03:33:39.113Z,2.80
2018-08-25T03:36:07.609Z,2.93
2018-08-25T03:38:36.044Z,3.50
2018-08-25T03:41:04.486Z,2.80
2018-08-25T03:43:32.914Z,3.10
2018-08-25T03:46:01.368Z,3.10
2018-08-25T03:48:29.793Z,3.30
2018-08-25T03:50:58.249Z,3.60
2018-08-25T03:53:26.691Z,4.37
2018-08-25T03:55:55.140Z,3.87
2018-08-25T03:58:23.869Z,4.20
2018-08-25T04:00:52.539Z,4.53
2018-08-25T04:03:20.961Z,4.70
2018-08-25T04:05:49.436Z,4.87
2018-08-25T04:08:17.919Z,5.67
2018-08-25T04:10:46.380Z,4.93
2018-08-25T04:13:14.992Z,4.90
2018-08-25T04:15:43.413Z,5.47
2018-08-25T04:18:11.880Z,5.00
2018-08-25T04:20:40.440Z,4.90
2018-08-25T04:23:08.965Z,5.00
2018-08-25T04:25:37.559Z,4.70
2018-08-25T04:28:06.289Z,4.63
2018-08-25T04:30:34.792Z,4.60
2018-08-25T04:33:03.218Z,4.63
2018-08-25T04:35:31.711Z,4.23
2018-08-25T04:38:00.196Z,4.87
2018-08-25T04:40:28.645Z,4.37
2018-08-25T04:42:57.098Z,4.37
2018-08-25T04:45:25.599Z,4.40
2018-08-25T04:47:54.085Z,4.03
2018-08-25T04:50:22.521Z,4.40
2018-08-25T04:52:50.986Z,4.10
2018-08-25T04:55:19.497Z,4.67
2018-08-25T04:57:47.937Z,4.27
2018-08-25T05:00:16.361Z,4.10
2018-08-25T05:02:44.882Z,4.47
2018-08-25T05:05:13.415Z,4.27
2018-08-25T05:07:42.001Z,4.20
2018-08-25T05:10:10.512Z,4.30
2018-08-25T05:12:39.257Z,4.73
2018-08-25T05:15:07.827Z,4.50
2018-08-25T05:17:36.403Z,4.10
2018-08-25T05:20:04.881Z,4.40
2018-08-25T05:22:33.373Z,4.07
2018-08-25T05:25:01.786Z,3.90
2018-08-25T05:27:30.267Z,4.03
2018-08-25T05:29:58.713Z,3.57
2018-08-25T05:32:27.300Z,3.50
2018-08-25T05:34:55.850Z,3.33
2018-08-25T05:37:24.276Z,3.17
2018-08-25T05:39:52.726Z,3.10
2018-08-25T05:42:21.210Z,3.23
2018-08-25T05:44:49.785Z,3.13
2018-08-25T05:47:18.317Z,2.97
2018-08-25T05:49:46.811Z,2.57
2018-08-25T05:52:15.286Z,2.93
2018-08-25T05:54:43.715Z,2.93
2018-08-25T05:57:12.234Z,3.37
2018-08-25T05:59:40.766Z,3.23
2018-08-25T06:02:09.209Z,3.23
2018-08-25T06:04:37.722Z,3.17
2018-08-25T06:07:06.239Z,3.10
2018-08-25T06:09:34.825Z,2.67
2018-08-25T06:12:03.349Z,2.80
2018-08-25T06:14:31.837Z,2.87
2018-08-25T06:17:00.368Z,2.73
2018-08-25T06:19:28.882Z,2.40
2018-08-25T06:21:57.337Z,2.50
2018-08-25T06:24:25.802Z,2.70
2018-08-25T06:26:54.257Z,3.00
2018-08-25T06:29:22.703Z,2.37
2018-08-25T06:31:51.237Z,2.70
2018-08-25T06:34:19.681Z,2.40
2018-08-25T06:36:49.049Z,2.93
2018-08-25T06:39:17.506Z,2.37
2018-08-25T06:41:46.142Z,2.27
2018-08-25T06:44:14.678Z,2.73
2018-08-25T06:46:43.182Z,2.53
2018-08-25T06:49:11.634Z,2.50
2018-08-25T06:51:40.158Z,2.17
2018-08-25T06:54:08.625Z,2.83
2018-08-25T06:56:37.104Z,2.27
2018-08-25T06:59:05.569Z,2.53
2018-08-25T07:01:34.014Z,2.30
2018-08-25T07:04:02.492Z,2.70
2018-08-25T07:06:30.967Z,2.77
2018-08-25T07:08:59.538Z,3.13
2018-08-25T07:11:28.078Z,2.43
2018-08-25T07:13:56.535Z,2.53
2018-08-25T07:16:25.192Z,2.40
2018-08-25T07:18:53.804Z,2.47
2018-08-25T07:21:22.257Z,2.10
2018-08-25T07:23:50.781Z,2.30
2018-08-25T07:26:19.332Z,2.23
2018-08-25T07:28:47.746Z,2.23
2018-08-25T07:31:16.599Z,2.37
2018-08-25T07:33:45.489Z,2.40
2018-08-25T07:36:13.942Z,2.17
2018-08-25T07:38:42.521Z,2.07
2018-08-25T07:41:10.991Z,2.33
2018-08-25T07:43:39.434Z,2.10
2018-08-25T07:46:07.913Z,1.90
2018-08-25T07:48:36.541Z,2.30
2018-08-25T07:51:05.152Z,1.83
2018-08-25T07:53:33.646Z,2.00
2018-08-25T07:56:02.082Z,2.30
2018-08-25T07:58:30.585Z,2.20
2018-08-25T08:00:58.999Z,2.03
2018-08-25T08:03:27.464Z,2.17
2018-08-25T08:05:55.941Z,1.80
2018-08-25T08:08:24.405Z,1.90
2018-08-25T08:10:52.908Z,2.00
2018-08-25T08:13:21.362Z,2.13
2018-08-25T08:15:49.809Z,1.80
2018-08-25T08:18:18.270Z,1.87
2018-08-25T08:20:46.848Z,1.90
2018-08-25T08:23:15.327Z,1.83
2018-08-25T08:25:43.787Z,1.80
2018-08-25T08:28:12.416Z,1.90
2018-08-25T08:30:40.951Z,2.00
2018-08-25T08:33:09.528Z,2.23
2018-08-25T08:35:38.139Z,2.10
2018-08-25T08:38:06.929Z,1.70
2018-08-25T08:40:36.014Z,1.90
2018-08-25T08:43:04.444Z,1.90
2018-08-25T08:45:32.943Z,1.90
2018-08-25T08:48:01.477Z,1.67
2018-08-25T08:50:30.144Z,1.70
2018-08-25T08:52:58.624Z,1.70
2018-08-25T08:55:27.096Z,1.80
2018-08-25T08:57:55.550Z,2.40
2018-08-25T09:00:24.012Z,1.33
2018-08-25T09:02:52.453Z,1.40
2018-08-25T09:05:21.020Z,1.50
2018-08-25T09:07:49.458Z,2.23
2018-08-25T09:10:17.886Z,1.73
2018-08-25T09:12:46.325Z,1.50
2018-08-25T09:15:14.768Z,1.30
2018-08-25T09:17:43.261Z,1.60
2018-08-25T09:20:11.745Z,2.03
2018-08-25T09:22:40.178Z,1.60
2018-08-25T09:25:08.673Z,1.53
2018-08-25T09:27:37.162Z,1.70
2018-08-25T09:30:05.974Z,1.60
2018-08-25T09:32:34.544Z,1.57
2018-08-25T09:35:03.142Z,1.50
2018-08-25T09:37:31.702Z,2.03
2018-08-25T09:40:00.220Z,1.70
2018-08-25T09:42:28.668Z,1.60
2018-08-25T09:44:57.292Z,1.70
2018-08-25T09:47:25.829Z,1.70
2018-08-25T09:49:54.262Z,1.70
2018-08-25T09:52:22.734Z,1.73
2018-08-25T09:54:51.203Z,1.70
2018-08-25T09:57:19.789Z,1.53
2018-08-25T09:59:48.286Z,1.90
2018-08-25T10:02:16.748Z,1.90
2018-08-25T10:04:45.312Z,1.83
2018-08-25T10:07:13.750Z,1.93
2018-08-25T10:09:42.222Z,1.80
2018-08-25T10:12:10.691Z,1.87
2018-08-25T10:14:39.174Z,1.80
2018-08-25T10:17:07.679Z,1.80
2018-08-25T10:19:36.106Z,1.73
2018-08-25T10:22:04.623Z,1.97
2018-08-25T10:24:33.188Z,1.77
2018-08-25T10:27:01.631Z,1.90
2018-08-25T10:29:30.082Z,1.70
2018-08-25T10:31:58.664Z,1.73
2018-08-25T10:34:27.182Z,1.60
2018-08-25T10:36:55.724Z,1.40
2018-08-25T10:39:24.188Z,1.80
2018-08-25T10:41:52.691Z,1.70
2018-08-25T10:44:21.112Z,1.73
2018-08-25T10:46:49.616Z,1.70
2018-08-25T10:49:18.050Z,1.73
2018-08-25T10:51:46.525Z,1.70
2018-08-25T10:54:15.036Z,1.70
2018-08-25T10:56:43.671Z,1.43
2018-08-25T10:59:12.251Z,2.00
2018-08-25T11:01:40.809Z,1.97
2018-08-25T11:04:09.293Z,1.70
2018-08-25T11:06:37.882Z,1.30
2018-08-25T11:09:09.923Z,1.57
2018-08-25T11:11:38.430Z,1.40
2018-08-25T11:14:07.041Z,1.50
2018-08-25T11:16:35.754Z,1.20
2018-08-25T11:19:04.124Z,1.50
2018-08-25T11:21:32.611Z,1.50
2018-08-25T11:24:01.078Z,1.30
2018-08-25T11:26:29.601Z,1.60
2018-08-25T11:28:58.147Z,1.50
2018-08-25T11:31:26.707Z,1.50
2018-08-25T11:33:55.171Z,1.40
2018-08-25T11:36:23.685Z,1.40
2018-08-25T11:38:52.867Z,1.60
2018-08-25T11:41:21.541Z,1.67
2018-08-25T11:43:50.066Z,1.43
2018-08-25T11:46:18.754Z,1.60
2018-08-25T11:48:47.441Z,1.50
2018-08-25T11:51:15.887Z,1.53
2018-08-25T11:53:44.325Z,1.50
2018-08-25T11:56:12.891Z,1.73
2018-08-25T11:58:41.449Z,1.60
2018-08-25T12:01:10.053Z,1.50
2018-08-25T12:03:38.617Z,1.50
2018-08-25T12:06:07.101Z,1.40
2018-08-25T12:08:35.567Z,1.23
2018-08-25T12:11:04.094Z,1.40
2018-08-25T12:13:32.549Z,1.60
2018-08-25T12:16:01.187Z,1.30
2018-08-25T12:18:29.695Z,1.60
2018-08-25T12:20:58.323Z,1.40
2018-08-25T12:23:26.775Z,1.60
2018-08-25T12:25:55.285Z,1.47
2018-08-25T12:28:23.784Z,1.30
2018-08-25T12:30:52.254Z,1.60
2018-08-25T12:33:20.905Z,1.30
2018-08-25T12:35:49.502Z,1.97
2018-08-25T12:38:17.985Z,1.63
2018-08-25T12:40:46.564Z,2.50
2018-08-25T12:43:15.081Z,1.53
2018-08-25T12:45:43.648Z,1.70
2018-08-25T12:48:12.128Z,1.57
2018-08-25T12:50:40.652Z,1.53
2018-08-25T12:53:09.183Z,2.10
2018-08-25T12:55:37.914Z,2.13
2018-08-25T12:58:06.479Z,1.80
2018-08-25T13:00:34.992Z,1.73
2018-08-25T13:03:03.530Z,1.63
2018-08-25T13:05:32.083Z,1.80
2018-08-25T13:08:00.562Z,1.80
2018-08-25T13:10:29.425Z,1.90
2018-08-25T13:12:57.921Z,1.97
2018-08-25T13:15:26.399Z,2.20
2018-08-25T13:17:54.902Z,1.70
2018-08-25T13:20:23.369Z,1.80
2018-08-25T13:22:51.895Z,1.90
2018-08-25T13:25:20.468Z,2.43
2018-08-25T13:27:49.564Z,1.80
2018-08-25T13:30:18.056Z,1.90
2018-08-25T13:32:46.658Z,2.07
2018-08-25T13:35:21.782Z,2.77
2018-08-25T13:37:50.260Z,2.10
2018-08-25T13:40:18.713Z,1.70
2018-08-25T13:42:47.183Z,1.97
2018-08-25T13:45:15.671Z,1.50
2018-08-25T13:47:44.182Z,1.80
2018-08-25T13:50:12.672Z,1.70
2018-08-25T13:52:41.186Z,1.97
2018-08-25T13:55:09.772Z,1.93
2018-08-25T13:57:38.292Z,1.83
2018-08-25T14:00:08.248Z,1.90
2018-08-25T14:02:36.790Z,1.70
2018-08-25T14:05:05.324Z,1.80
2018-08-25T14:07:33.880Z,1.80
2018-08-25T14:10:02.466Z,1.93
2018-08-25T14:12:31.052Z,1.67
2018-08-25T14:14:59.496Z,1.73
2018-08-25T14:17:27.942Z,1.60
2018-08-25T14:19:56.414Z,1.60
2018-08-25T14:22:24.879Z,1.87
2018-08-25T14:24:53.341Z,1.90
2018-08-25T14:27:21.859Z,1.80
2018-08-25T14:29:50.352Z,1.90
2018-08-25T14:32:18.814Z,1.87
2018-08-25T14:34:47.306Z,1.70
2018-08-25T14:37:15.782Z,1.47
2018-08-25T14:39:44.746Z,1.60
2018-08-25T14:42:13.230Z,1.67
2018-08-25T14:44:41.692Z,1.93
2018-08-25T14:47:10.264Z,1.67
2018-08-25T14:49:38.729Z,1.47
2018-08-25T14:52:07.206Z,1.63
2018-08-25T14:54:35.771Z,1.97
2018-08-25T14:57:04.369Z,1.53
2018-08-25T14:59:32.932Z,1.47
2018-08-25T15:02:01.402Z,1.83
2018-08-25T15:04:29.877Z,1.50
2018-08-25T15:06:58.383Z,1.50
2018-08-25T15:09:26.827Z,1.33
2018-08-25T15:11:55.331Z,1.43
2018-08-25T15:14:23.774Z,1.60
2018-08-25T15:16:52.379Z,1.80
2018-08-25T15:19:20.916Z,1.70
2018-08-25T15:21:49.391Z,1.30
2018-08-25T15:24:17.887Z,1.80
2018-08-25T15:26:46.391Z,1.60
2018-08-25T15:29:15.756Z,1.47
2018-08-25T15:31:44.289Z,1.40
2018-08-25T15:34:12.792Z,1.40
2018-08-25T15:36:41.368Z,1.20
2018-08-25T15:39:12.457Z,1.50
2018-08-25T15:41:40.945Z,1.43
2018-08-25T15:44:09.492Z,1.30
2018-08-25T15:46:37.973Z,1.40
2018-08-25T15:49:06.677Z,1.73
2018-08-25T15:51:35.255Z,1.23
2018-08-25T15:54:03.846Z,1.30
2018-08-25T15:56:32.353Z,1.50
2018-08-25T15:59:00.893Z,1.60
2018-08-25T16:01:29.383Z,1.30
2018-08-25T16:03:58.050Z,1.40
2018-08-25T16:06:26.667Z,1.30
2018-08-25T16:08:55.259Z,1.50
2018-08-25T16:11:23.793Z,1.30
2018-08-25T16:13:52.246Z,1.60
2018-08-25T16:16:20.727Z,1.47
2018-08-25T16:18:49.290Z,1.57
2018-08-25T16:21:17.882Z,1.37
2018-08-25T16:23:46.342Z,1.60
2018-08-25T16:26:14.822Z,1.73
2018-08-25T16:28:43.518Z,1.83
2018-08-25T16:31:12.124Z,1.53
2018-08-25T16:33:40.674Z,1.40
2018-08-25T16:36:09.150Z,1.50
2018-08-25T16:38:37.772Z,1.40
2018-08-25T16:41:06.347Z,1.40
2018-08-25T16:43:34.847Z,1.50
2018-08-25T16:46:03.384Z,1.50
2018-08-25T16:48:31.942Z,1.47
2018-08-25T16:51:00.477Z,1.43
2018-08-25T16:53:28.927Z,1.57
2018-08-25T16:55:57.465Z,1.47
2018-08-25T16:58:25.916Z,1.50
2018-08-25T17:00:54.408Z,1.70
2018-08-25T17:03:22.883Z,1.40
2018-08-25T17:05:51.330Z,1.73
2018-08-25T17:08:19.812Z,1.53
2018-08-25T17:10:48.267Z,1.60
2018-08-25T17:13:16.748Z,1.97
2018-08-25T17:15:45.225Z,1.90
2018-08-25T17:18:13.668Z,1.50
2018-08-25T17:20:42.152Z,1.60
2018-08-25T17:23:10.656Z,1.60
2018-08-25T17:25:39.082Z,1.50
2018-08-25T17:28:07.543Z,1.50
2018-08-25T17:30:35.980Z,1.37
2018-08-25T17:33:04.643Z,1.40
2018-08-25T17:35:33.230Z,1.50
2018-08-25T17:38:01.857Z,1.90
2018-08-25T17:40:30.368Z,1.40
2018-08-25T17:42:58.822Z,1.40
2018-08-25T17:45:27.394Z,1.67
2018-08-25T17:47:55.878Z,1.53
2018-08-25T17:50:24.542Z,1.40
2018-08-25T17:52:53.124Z,1.30
2018-08-25T17:55:21.704Z,2.03
2018-08-25T17:57:50.200Z,1.40
2018-08-25T18:00:18.801Z,1.80
2018-08-25T18:02:47.254Z,1.40
2018-08-25T18:05:15.966Z,1.40
2018-08-25T18:07:47.370Z,1.60
2018-08-25T18:10:15.901Z,1.50
2018-08-25T18:12:44.387Z,1.70
2018-08-25T18:15:12.921Z,1.33
2018-08-25T18:17:41.447Z,1.63
2018-08-25T18:20:09.861Z,1.30
2018-08-25T18:22:38.368Z,1.30
2018-08-25T18:25:06.970Z,1.60
2018-08-25T18:27:36.986Z,1.67
2018-08-25T18:30:05.846Z,1.80
2018-08-25T18:32:34.299Z,1.50
2018-08-25T18:35:02.821Z,1.53
2018-08-25T18:37:31.307Z,1.43
2018-08-25T18:39:59.769Z,1.83
2018-08-25T18:42:28.251Z,1.93
2018-08-25T18:44:56.721Z,1.97
2018-08-25T18:47:25.247Z,1.70
2018-08-25T18:49:53.749Z,1.97
2018-08-25T18:52:22.251Z,2.00
2018-08-25T18:54:50.827Z,1.77
2018-08-25T18:57:19.234Z,1.70
2018-08-25T18:59:47.845Z,1.90
2018-08-25T19:02:16.376Z,1.80
2018-08-25T19:04:44.835Z,1.97
2018-08-25T19:07:13.303Z,1.80
2018-08-25T19:09:41.792Z,1.90
2018-08-25T19:12:10.265Z,1.80
2018-08-25T19:14:38.798Z,1.80
2018-08-25T19:17:07.301Z,2.27
2018-08-25T19:19:35.801Z,1.70
2018-08-25T19:22:04.323Z,1.70
2018-08-25T19:24:32.784Z,1.80
2018-08-25T19:27:01.252Z,1.73
2018-08-25T19:29:29.771Z,1.63
2018-08-25T19:31:58.381Z,1.77
2018-08-25T19:34:26.837Z,1.70
2018-08-25T19:36:55.451Z,1.93
2018-08-25T19:39:23.899Z,1.90
2018-08-25T19:41:52.369Z,1.70
2018-08-25T19:44:20.827Z,1.80
2018-08-25T19:46:49.400Z,1.90
2018-08-25T19:49:17.889Z,1.80
2018-08-25T19:51:46.581Z,1.90
2018-08-25T19:54:15.033Z,1.80
2018-08-25T19:56:43.487Z,2.23
2018-08-25T19:59:12.056Z,1.77
2018-08-25T20:01:40.502Z,2.10
2018-08-25T20:04:09.013Z,2.40
2018-08-25T20:06:37.470Z,2.50
2018-08-25T20:09:07.421Z,2.70
2018-08-25T20:11:35.902Z,3.10
2018-08-25T20:14:04.798Z,2.80
2018-08-25T20:16:33.346Z,3.03
2018-08-25T20:19:02.294Z,3.57
2018-08-25T20:21:30.851Z,3.00
2018-08-25T20:23:59.293Z,3.03
2018-08-25T20:26:27.739Z,2.97
2018-08-25T20:28:56.204Z,3.00
2018-08-25T20:31:24.709Z,3.13
2018-08-25T20:33:53.170Z,3.20
2018-08-25T20:36:21.722Z,3.20
2018-08-25T20:38:50.239Z,2.87
2018-08-25T20:41:18.805Z,2.93
2018-08-25T20:43:47.489Z,3.00
2018-08-25T20:46:15.974Z,3.30
2018-08-25T20:48:44.475Z,3.23
2018-08-25T20:51:13.029Z,3.40
2018-08-25T20:53:41.608Z,3.37
2018-08-25T20:56:14.954Z,3.10
2018-08-25T20:58:43.762Z,3.73
2018-08-25T21:01:12.202Z,3.60
2018-08-25T21:03:40.646Z,2.90
2018-08-25T21:06:09.103Z,2.97
2018-08-25T21:08:37.630Z,2.97
2018-08-25T21:11:06.497Z,3.20
2018-08-25T21:13:34.930Z,3.40
2018-08-25T21:16:03.534Z,3.50
2018-08-25T21:18:32.026Z,2.83
2018-08-25T21:21:00.584Z,3.10
2018-08-25T21:23:29.034Z,2.93
2018-08-25T21:25:57.528Z,2.90
2018-08-25T21:28:26.128Z,3.07
2018-08-25T21:30:54.674Z,2.77
2018-08-25T21:33:23.413Z,3.10
2018-08-25T21:35:51.854Z,3.37
2018-08-25T21:38:20.457Z,3.00
2018-08-25T21:40:48.962Z,2.90
2018-08-25T21:43:17.393Z,3.00
2018-08-25T21:45:45.848Z,2.80
2018-08-25T21:48:14.274Z,2.77
2018-08-25T21:50:42.835Z,2.50
2018-08-25T21:53:11.267Z,2.93
2018-08-25T21:55:39.749Z,2.90
2018-08-25T21:58:08.333Z,3.03
2018-08-25T22:00:41.053Z,3.20
2018-08-25T22:03:09.535Z,2.90
2018-08-25T22:05:37.975Z,3.30
2018-08-25T22:08:06.531Z,3.23
2018-08-25T22:10:34.997Z,3.00
2018-08-25T22:13:03.457Z,3.33
2018-08-25T22:15:32.043Z,3.10
2018-08-25T22:18:00.459Z,3.00
2018-08-25T22:20:28.959Z,3.07
2018-08-25T22:22:57.537Z,3.30
2018-08-25T22:25:26.034Z,3.27
2018-08-25T22:27:54.491Z,3.40
2018-08-25T22:30:22.990Z,3.43
2018-08-25T22:32:51.428Z,3.07
2018-08-25T22:35:19.879Z,2.97
2018-08-25T22:37:48.433Z,3.37
2018-08-25T22:40:16.867Z,3.10
2018-08-25T22:42:45.314Z,2.50
2018-08-25T22:45:13.805Z,2.80
2018-08-25T22:47:42.233Z,2.83
2018-08-25T22:50:10.706Z,3.30
2018-08-25T22:52:44.537Z,3.37
2018-08-25T22:55:12.966Z,2.90
2018-08-25T22:57:41.469Z,3.20
2018-08-25T23:00:10.007Z,3.00
2018-08-25T23:02:40.517Z,3.00
2018-08-25T23:05:09.278Z,3.10
2018-08-25T23:07:38.201Z,3.10
2018-08-25T23:10:07.057Z,2.83
2018-08-25T23:12:35.775Z,3.00
2018-08-25T23:15:04.468Z,3.23
2018-08-25T23:17:33.095Z,3.13
2018-08-25T23:20:01.663Z,3.20
2018-08-25T23:22:30.232Z,3.33
2018-08-25T23:24:58.696Z,3.27
2018-08-25T23:27:27.272Z,3.27
2018-08-25T23:29:55.766Z,3.20
2018-08-25T23:32:24.193Z,2.90
2018-08-25T23:34:52.752Z,3.20
2018-08-25T23:37:21.214Z,2.87
2018-08-25T23:39:49.715Z,2.97
2018-08-25T23:42:18.139Z,3.13
2018-08-25T23:44:46.602Z,2.97
2018-08-25T23:47:15.065Z,2.80
2018-08-25T23:49:43.601Z,3.37
2018-08-25T23:52:12.055Z,3.53
2018-08-25T23:54:40.578Z,3.83
2018-08-25T23:57:09.172Z,3.37
2018-08-25T23:59:37.672Z,3.70
